createdAt,value
2022-12-19T00:01:37.245Z,29.65
2022-12-19T00:04:08.831Z,27.71
2022-12-19T00:06:38.011Z,29.91
2022-12-19T00:09:11.197Z,26.59
2022-12-19T00:11:38.887Z,29.49
2022-12-19T00:14:07.002Z,28.99
2022-12-19T00:16:33.875Z,27.40
2022-12-19T00:19:01.953Z,27.40
2022-12-19T00:21:31.400Z,25.81
2022-12-19T00:24:03.119Z,26.10
2022-12-19T00:26:35.654Z,24.20
2022-12-19T00:29:08.653Z,23.87
2022-12-19T00:31:38.779Z,23.86
2022-12-19T00:34:06.564Z,26.04
2022-12-19T00:36:34.708Z,24.87
2022-12-19T00:39:07.747Z,23.68
2022-12-19T00:41:37.129Z,25.00
2022-12-19T00:44:07.297Z,25.43
2022-12-19T00:46:35.233Z,25.17
2022-12-19T00:49:03.649Z,28.20
2022-12-19T00:51:33.228Z,25.29
2022-12-19T00:54:01.437Z,25.77
2022-12-19T00:56:37.070Z,24.53
2022-12-19T00:59:07.274Z,26.27
2022-12-19T01:01:37.528Z,26.27
2022-12-19T01:06:54.454Z,26.73
2022-12-19T01:09:32.493Z,24.98
2022-12-19T01:12:18.390Z,25.35
2022-12-19T01:14:45.697Z,25.69
2022-12-19T01:17:12.603Z,23.81
2022-12-19T01:19:44.016Z,23.74
2022-12-19T01:22:14.431Z,27.41
2022-12-19T01:24:41.697Z,27.36
2022-12-19T01:27:09.195Z,28.40
2022-12-19T01:29:37.191Z,28.10
2022-12-19T01:32:12.640Z,28.88
2022-12-19T01:34:39.465Z,27.52
2022-12-19T01:37:06.469Z,28.03
2022-12-19T01:39:33.124Z,24.40
2022-12-19T01:42:01.712Z,24.34
2022-12-19T01:44:28.459Z,24.48
2022-12-19T01:47:00.188Z,25.65
2022-12-19T01:49:37.168Z,27.24
2022-12-19T01:52:07.879Z,25.79
2022-12-19T01:54:40.862Z,28.21
2022-12-19T01:57:12.278Z,26.79
2022-12-19T01:59:46.165Z,25.89
2022-12-19T02:02:24.007Z,26.29
2022-12-19T02:04:51.089Z,23.94
2022-12-19T02:07:20.165Z,23.90
2022-12-19T02:09:56.591Z,25.52
2022-12-19T02:12:38.070Z,26.20
2022-12-19T02:15:08.228Z,26.38
2022-12-19T02:17:52.598Z,24.91
2022-12-19T02:20:29.350Z,27.45
2022-12-19T02:23:03.352Z,25.32
2022-12-19T02:25:36.302Z,25.39
2022-12-19T02:28:33.984Z,24.64
2022-12-19T02:31:26.100Z,24.81
2022-12-19T02:34:02.593Z,25.59
2022-12-19T02:36:33.985Z,25.86
2022-12-19T02:39:27.731Z,25.50
2022-12-19T02:41:58.885Z,26.26
2022-12-19T02:44:40.623Z,26.51
2022-12-19T02:47:10.291Z,27.22
2022-12-19T02:49:39.345Z,24.76
2022-12-19T02:52:34.424Z,24.33
2022-12-19T02:55:06.540Z,27.36
2022-12-19T02:58:09.369Z,25.69
2022-12-19T03:00:51.383Z,25.75
2022-12-19T03:03:35.672Z,25.42
2022-12-19T03:06:30.095Z,25.19
2022-12-19T03:09:08.755Z,24.97
2022-12-19T03:11:39.557Z,23.38
2022-12-19T03:14:11.507Z,24.36
2022-12-19T03:16:38.588Z,23.91
2022-12-19T03:19:10.790Z,25.79
2022-12-19T03:21:44.445Z,26.54
2022-12-19T03:24:13.060Z,28.01
2022-12-19T03:26:55.487Z,27.98
2022-12-19T03:29:33.055Z,25.17
2022-12-19T03:32:03.185Z,25.61
2022-12-19T03:34:42.569Z,26.19
2022-12-19T03:37:17.354Z,24.84
2022-12-19T03:39:49.044Z,27.56
2022-12-19T03:42:36.058Z,25.03
2022-12-19T03:45:06.764Z,24.76
2022-12-19T03:47:51.066Z,25.19
2022-12-19T03:50:18.823Z,24.11
2022-12-19T03:53:05.674Z,23.60
2022-12-19T03:55:41.886Z,23.40
2022-12-19T03:58:16.975Z,24.28
2022-12-19T04:00:50.003Z,23.86
2022-12-19T04:03:19.364Z,24.07
2022-12-19T04:05:48.502Z,24.19
2022-12-19T04:08:16.784Z,24.45
2022-12-19T04:10:58.002Z,24.71
2022-12-19T04:13:46.736Z,26.12
2022-12-19T04:16:39.897Z,23.42
2022-12-19T04:19:16.857Z,25.01
2022-12-19T04:21:57.000Z,25.80
2022-12-19T04:24:30.963Z,25.63
2022-12-19T04:27:02.545Z,25.45
2022-12-19T04:29:33.162Z,27.93
2022-12-19T04:32:03.118Z,26.10
2022-12-19T04:34:33.452Z,26.70
2022-12-19T04:37:03.684Z,26.58
2022-12-19T04:39:30.503Z,26.68
2022-12-19T04:41:58.321Z,27.12
2022-12-19T04:44:25.093Z,24.90
2022-12-19T04:46:51.858Z,28.19
2022-12-19T04:49:18.747Z,25.78
2022-12-19T04:51:45.996Z,25.64
2022-12-19T04:54:13.394Z,25.57
2022-12-19T04:56:40.096Z,24.63
2022-12-19T04:59:06.787Z,29.90
2022-12-19T05:01:33.576Z,26.53
2022-12-19T05:04:04.424Z,27.26
2022-12-19T05:06:32.390Z,26.66
2022-12-19T05:08:59.073Z,26.26
2022-12-19T05:11:26.187Z,26.31
2022-12-19T05:13:53.020Z,24.48
2022-12-19T05:16:19.816Z,26.19
2022-12-19T05:18:46.636Z,26.26
2022-12-19T05:21:14.182Z,25.94
2022-12-19T05:23:41.758Z,25.78
2022-12-19T05:26:11.590Z,26.99
2022-12-19T05:28:38.647Z,26.02
2022-12-19T05:31:10.985Z,29.41
2022-12-19T05:33:40.014Z,29.00
2022-12-19T05:36:08.459Z,28.16
2022-12-19T05:38:36.322Z,26.37
2022-12-19T05:41:12.278Z,28.00
2022-12-19T05:43:42.883Z,27.12
2022-12-19T05:46:09.633Z,27.35
2022-12-19T05:48:36.984Z,25.07
2022-12-19T05:51:04.203Z,25.44
2022-12-19T05:53:31.097Z,25.30
2022-12-19T05:56:16.255Z,26.95
2022-12-19T05:58:45.210Z,28.60
2022-12-19T06:01:20.418Z,29.79
2022-12-19T06:03:47.907Z,28.74
2022-12-19T06:06:20.237Z,27.40
2022-12-19T06:08:47.746Z,28.54
2022-12-19T06:11:14.900Z,28.45
2022-12-19T06:13:42.090Z,27.49
2022-12-19T06:16:21.488Z,26.79
2022-12-19T06:18:48.321Z,26.33
2022-12-19T06:21:20.652Z,26.12
2022-12-19T06:23:47.839Z,25.69
2022-12-19T06:26:19.936Z,25.10
2022-12-19T06:28:51.783Z,26.48
2022-12-19T06:31:20.610Z,27.73
2022-12-19T06:33:47.323Z,25.76
2022-12-19T06:36:16.430Z,25.69
2022-12-19T06:38:44.197Z,26.23
2022-12-19T06:41:29.665Z,26.54
2022-12-19T06:44:05.853Z,25.38
2022-12-19T06:46:33.472Z,26.51
2022-12-19T06:49:00.590Z,27.72
2022-12-19T06:51:28.026Z,25.54
2022-12-19T06:53:55.634Z,25.98
2022-12-19T06:56:22.381Z,25.23
2022-12-19T06:58:49.590Z,23.42
2022-12-19T07:01:25.344Z,25.59
2022-12-19T07:03:52.508Z,24.72
2022-12-19T07:06:19.201Z,25.98
2022-12-19T07:08:45.923Z,25.68
2022-12-19T07:11:13.378Z,27.54
2022-12-19T07:13:40.096Z,27.51
2022-12-19T07:16:08.475Z,26.59
2022-12-19T07:18:38.183Z,25.69
2022-12-19T07:21:06.992Z,27.51
2022-12-19T07:23:34.747Z,26.86
2022-12-19T07:26:01.741Z,27.47
2022-12-19T07:28:36.127Z,24.19
2022-12-19T07:31:02.917Z,26.39
2022-12-19T07:33:30.218Z,25.73
2022-12-19T07:35:57.282Z,24.70
2022-12-19T07:38:25.540Z,24.87
2022-12-19T07:40:52.573Z,24.62
2022-12-19T07:43:19.244Z,22.87
2022-12-19T07:45:46.029Z,23.63
2022-12-19T07:48:14.272Z,23.67
2022-12-19T07:50:41.786Z,23.42
2022-12-19T07:53:08.474Z,25.37
2022-12-19T07:55:35.186Z,24.08
2022-12-19T07:58:01.977Z,24.43
2022-12-19T08:00:29.233Z,23.54
2022-12-19T08:02:56.318Z,25.05
2022-12-19T08:05:23.104Z,23.35
2022-12-19T08:07:55.190Z,23.80
2022-12-19T08:10:22.955Z,23.12
2022-12-19T08:12:49.736Z,23.90
2022-12-19T08:15:16.451Z,23.40
2022-12-19T08:17:44.398Z,24.11
2022-12-19T08:20:11.731Z,26.95
2022-12-19T08:22:38.450Z,26.70
2022-12-19T08:25:07.062Z,27.52
2022-12-19T08:27:34.845Z,26.51
2022-12-19T08:30:01.580Z,26.93
2022-12-19T08:32:29.531Z,27.60
2022-12-19T08:34:56.869Z,25.99
2022-12-19T08:37:30.711Z,26.91
2022-12-19T08:39:59.114Z,26.95
2022-12-19T08:42:26.282Z,26.68
2022-12-19T08:44:53.341Z,28.37
2022-12-19T08:47:20.093Z,25.21
2022-12-19T08:49:46.884Z,24.58
2022-12-19T08:52:14.769Z,24.20
2022-12-19T08:54:44.600Z,24.27
2022-12-19T08:57:11.897Z,24.08
2022-12-19T08:59:38.815Z,24.73
2022-12-19T09:02:07.262Z,24.19
2022-12-19T09:05:58.786Z,23.18
2022-12-19T09:10:38.185Z,24.31
2022-12-19T09:13:05.887Z,21.71
2022-12-19T09:15:32.663Z,21.79
2022-12-19T09:18:00.010Z,25.39
2022-12-19T09:20:29.473Z,25.15
2022-12-19T09:22:56.541Z,24.82
2022-12-19T09:25:23.842Z,25.00
2022-12-19T09:28:26.040Z,25.46
2022-12-19T09:30:37.593Z,27.59
2022-12-19T09:33:05.016Z,27.57
2022-12-19T09:35:31.971Z,27.45
2022-12-19T09:38:00.724Z,27.03
2022-12-19T09:40:31.418Z,27.80
2022-12-19T09:43:06.340Z,27.38
2022-12-19T09:46:19.051Z,25.87
2022-12-19T09:48:55.129Z,28.33
2022-12-19T09:51:38.672Z,26.11
2022-12-19T09:54:13.023Z,28.65
2022-12-19T09:56:46.435Z,27.31
2022-12-19T09:59:41.597Z,26.70
2022-12-19T10:02:31.830Z,28.21
2022-12-19T10:05:17.913Z,27.47
2022-12-19T10:08:09.558Z,26.33
2022-12-19T10:12:38.217Z,28.21
2022-12-19T10:13:51.635Z,24.45
2022-12-19T10:16:30.400Z,23.36
2022-12-19T10:19:16.513Z,23.63
2022-12-19T10:22:17.912Z,24.26
2022-12-19T10:25:00.037Z,24.51
2022-12-19T10:27:59.645Z,24.64
2022-12-19T10:30:32.226Z,25.09
2022-12-19T10:33:19.787Z,23.64
2022-12-19T10:35:53.148Z,23.47
2022-12-19T10:38:49.065Z,22.64
2022-12-19T10:41:29.171Z,22.31
2022-12-19T10:44:10.977Z,21.91
2022-12-19T10:46:40.770Z,23.60
2022-12-19T10:49:18.460Z,23.44
2022-12-19T10:52:05.339Z,22.37
2022-12-19T10:54:41.781Z,23.03
2022-12-19T10:57:18.372Z,24.07
2022-12-19T11:00:02.925Z,23.76
2022-12-19T11:02:38.720Z,23.06
2022-12-19T11:05:22.752Z,22.39
2022-12-19T11:08:08.346Z,23.41
2022-12-19T11:11:54.967Z,22.40
2022-12-19T11:16:45.632Z,23.23
2022-12-19T11:21:06.095Z,22.03
2022-12-19T11:29:26.084Z,23.75
2022-12-19T11:29:38.302Z,22.95
2022-12-19T11:30:45.739Z,24.91
2022-12-19T11:30:47.664Z,24.06
2022-12-19T11:34:04.578Z,26.42
2022-12-19T11:36:35.401Z,23.51
2022-12-19T11:39:04.357Z,25.39
2022-12-19T11:41:47.391Z,24.25
2022-12-19T11:44:29.937Z,24.66
2022-12-19T11:47:19.465Z,25.18
2022-12-19T11:49:52.351Z,23.95
2022-12-19T11:53:05.130Z,23.77
2022-12-19T11:55:47.421Z,24.66
2022-12-19T11:58:14.439Z,23.11
2022-12-19T12:01:02.856Z,23.44
2022-12-19T12:03:59.218Z,22.73
2022-12-19T12:06:46.709Z,23.34
2022-12-19T12:13:36.194Z,23.64
2022-12-19T12:15:57.701Z,22.78
2022-12-19T12:25:27.640Z,24.33
2022-12-19T12:29:48.331Z,24.09
2022-12-19T12:31:10.656Z,23.57
2022-12-19T12:31:42.137Z,23.54
2022-12-19T12:31:59.017Z,23.27
2022-12-19T12:35:56.310Z,26.31
2022-12-19T12:38:24.345Z,23.55
2022-12-19T12:40:52.019Z,24.02
2022-12-19T12:43:24.534Z,23.81
2022-12-19T12:45:51.285Z,24.16
2022-12-19T12:48:26.436Z,24.55
2022-12-19T12:50:56.053Z,25.17
2022-12-19T12:53:33.052Z,25.32
2022-12-19T12:56:06.559Z,24.91
2022-12-19T12:58:50.915Z,27.74
2022-12-19T13:01:37.612Z,25.73
2022-12-19T13:04:21.779Z,26.56
2022-12-19T13:07:23.413Z,28.45
2022-12-19T13:10:05.963Z,28.44
2022-12-19T13:12:51.978Z,27.90
2022-12-19T13:15:27.797Z,28.65
2022-12-19T13:17:54.945Z,27.07
2022-12-19T13:20:25.219Z,30.00
2022-12-19T13:23:00.316Z,28.92
2022-12-19T13:25:27.086Z,27.42
2022-12-19T13:28:03.692Z,26.54
2022-12-19T13:30:54.315Z,25.82
2022-12-19T13:33:20.352Z,25.56
2022-12-19T13:36:32.957Z,24.10
2022-12-19T13:39:55.430Z,23.27
2022-12-19T13:42:02.504Z,23.43
2022-12-19T13:44:32.510Z,23.77
2022-12-19T13:46:59.270Z,23.69
2022-12-19T13:49:34.852Z,23.76
2022-12-19T13:52:04.701Z,24.91
2022-12-19T13:54:38.658Z,23.68
2022-12-19T13:57:23.005Z,23.95
2022-12-19T14:00:00.303Z,25.66
2022-12-19T14:02:45.037Z,26.93
2022-12-19T14:06:16.561Z,24.03
2022-12-19T14:08:28.595Z,24.25
2022-12-19T14:11:33.616Z,24.75
2022-12-19T14:14:17.663Z,25.72
2022-12-19T14:16:49.124Z,27.24
2022-12-19T14:19:26.398Z,26.22
2022-12-19T14:22:11.380Z,25.50
2022-12-19T14:24:41.992Z,25.01
2022-12-19T14:28:24.583Z,24.80
2022-12-19T14:30:29.740Z,25.08
2022-12-19T14:33:43.820Z,26.41
2022-12-19T14:36:10.401Z,25.00
2022-12-19T14:39:22.027Z,24.84
2022-12-19T14:42:01.817Z,23.19
2022-12-19T14:51:51.772Z,23.12
2022-12-19T14:54:10.121Z,23.22
2022-12-19T14:54:21.704Z,25.89
2022-12-19T14:54:39.879Z,24.49
2022-12-19T14:56:53.953Z,23.44
2022-12-19T14:59:29.504Z,24.76
2022-12-19T15:02:03.184Z,25.25
2022-12-19T15:04:51.396Z,25.04
2022-12-19T15:07:33.607Z,27.14
2022-12-19T15:11:07.399Z,26.81
2022-12-19T15:14:55.131Z,26.80
2022-12-19T15:16:23.237Z,24.43
2022-12-19T15:18:51.047Z,23.89
2022-12-19T15:21:17.987Z,24.99
2022-12-19T15:23:45.976Z,24.64
2022-12-19T15:26:16.549Z,25.10
2022-12-19T15:28:52.900Z,25.35
2022-12-19T15:31:40.469Z,26.82
2022-12-19T15:34:48.347Z,26.79
2022-12-19T15:37:14.565Z,25.54
2022-12-19T15:39:43.075Z,24.70
2022-12-19T15:42:22.818Z,25.48
2022-12-19T15:44:51.835Z,24.93
2022-12-19T15:47:39.275Z,25.98
2022-12-19T15:50:18.749Z,23.85
2022-12-19T15:52:45.769Z,24.94
2022-12-19T15:55:15.087Z,27.40
2022-12-19T15:57:46.673Z,29.94
2022-12-19T16:00:25.399Z,29.57
2022-12-19T16:03:23.470Z,25.13
2022-12-19T16:05:42.103Z,24.95
2022-12-19T16:08:27.135Z,24.23
2022-12-19T16:11:01.457Z,23.71
2022-12-19T16:13:35.749Z,26.22
2022-12-19T16:16:11.147Z,25.77
2022-12-19T16:18:43.017Z,25.61
2022-12-19T16:21:31.623Z,27.29
2022-12-19T16:24:01.061Z,25.07
2022-12-19T16:26:40.335Z,26.23
2022-12-19T16:29:20.636Z,28.43
2022-12-19T16:31:48.935Z,27.88
2022-12-19T16:34:20.916Z,26.36
2022-12-19T16:36:48.919Z,26.89
2022-12-19T16:39:17.035Z,26.03
2022-12-19T16:41:45.181Z,26.35
2022-12-19T16:44:19.535Z,26.17
2022-12-19T16:46:51.124Z,27.74
2022-12-19T16:49:25.406Z,27.98
2022-12-19T16:51:52.239Z,29.56
2022-12-19T16:54:20.175Z,29.54
2022-12-19T16:56:50.877Z,27.12
2022-12-19T16:59:22.561Z,27.32
2022-12-19T17:01:51.279Z,29.07
2022-12-19T17:04:21.767Z,28.36
2022-12-19T17:06:50.792Z,26.84
2022-12-19T17:09:23.521Z,25.84
2022-12-19T17:12:00.229Z,24.51
2022-12-19T17:14:32.563Z,23.85
2022-12-19T17:16:59.728Z,29.58
2022-12-19T17:19:32.818Z,27.76
2022-12-19T17:22:00.405Z,26.43
2022-12-19T17:24:27.627Z,29.67
2022-12-19T17:26:54.644Z,25.81
2022-12-19T17:29:21.633Z,25.62
2022-12-19T17:31:48.748Z,25.01
2022-12-19T17:34:29.454Z,24.20
2022-12-19T17:36:58.005Z,24.03
2022-12-19T17:39:27.139Z,24.21
2022-12-19T17:41:58.027Z,27.36
2022-12-19T17:44:24.784Z,27.26
2022-12-19T17:46:52.245Z,28.23
2022-12-19T17:49:31.310Z,26.36
2022-12-19T17:51:59.898Z,28.24
2022-12-19T17:54:28.191Z,26.08
2022-12-19T17:56:55.660Z,25.57
2022-12-19T17:59:22.440Z,27.23
2022-12-19T18:01:50.226Z,26.76
2022-12-19T18:04:20.407Z,27.13
2022-12-19T18:06:47.348Z,27.78
2022-12-19T18:09:23.072Z,25.78
2022-12-19T18:11:52.794Z,26.61
2022-12-19T18:14:20.996Z,28.39
2022-12-19T18:16:50.263Z,26.81
2022-12-19T18:19:24.735Z,25.29
2022-12-19T18:21:52.015Z,24.74
2022-12-19T18:24:19.208Z,26.07
2022-12-19T18:26:45.850Z,26.52
2022-12-19T18:29:13.517Z,26.61
2022-12-19T18:31:46.487Z,25.80
2022-12-19T18:34:25.191Z,26.85
2022-12-19T18:36:53.199Z,27.59
2022-12-19T18:39:24.623Z,26.80
2022-12-19T18:41:52.998Z,26.63
2022-12-19T18:44:20.793Z,26.78
2022-12-19T18:46:50.569Z,27.94
2022-12-19T18:49:17.636Z,27.29
2022-12-19T18:51:45.356Z,26.20
2022-12-19T18:54:15.003Z,25.42
2022-12-19T18:56:41.765Z,26.26
2022-12-19T18:59:09.087Z,26.66
2022-12-19T19:01:41.819Z,25.52
2022-12-19T19:04:12.115Z,26.64
2022-12-19T19:06:40.301Z,26.15
2022-12-19T19:09:15.975Z,26.91
2022-12-19T19:11:53.828Z,28.40
2022-12-19T19:14:21.323Z,28.11
2022-12-19T19:16:48.174Z,28.48
2022-12-19T19:19:17.869Z,27.61
2022-12-19T19:21:45.336Z,27.58
2022-12-19T19:24:22.856Z,28.28
2022-12-19T19:26:50.934Z,27.46
2022-12-19T19:29:20.001Z,27.82
2022-12-19T19:31:51.227Z,28.33
2022-12-19T19:34:29.499Z,27.05
2022-12-19T19:36:59.237Z,25.88
2022-12-19T19:39:27.860Z,26.45
2022-12-19T19:41:56.268Z,26.80
2022-12-19T19:44:24.475Z,27.58
2022-12-19T19:46:51.408Z,27.15
2022-12-19T19:49:21.253Z,27.71
2022-12-19T19:51:48.475Z,28.76
2022-12-19T19:54:15.670Z,30.79
2022-12-19T19:56:42.459Z,29.35
2022-12-19T19:59:09.204Z,28.74
2022-12-19T20:01:37.153Z,30.35
2022-12-19T20:04:05.033Z,26.27
2022-12-19T20:06:31.831Z,26.00
2022-12-19T20:08:58.764Z,28.15
2022-12-19T20:11:25.610Z,28.45
2022-12-19T20:13:53.299Z,26.89
2022-12-19T20:16:20.595Z,27.86
2022-12-19T20:18:52.445Z,30.14
2022-12-19T20:21:20.329Z,30.64
2022-12-19T20:23:47.916Z,30.36
2022-12-19T20:26:16.502Z,28.42
2022-12-19T20:28:48.910Z,30.28
2022-12-19T20:31:23.410Z,30.65
2022-12-19T20:33:53.398Z,28.55
2022-12-19T20:36:21.837Z,27.98
2022-12-19T20:38:49.311Z,26.16
2022-12-19T20:41:17.183Z,26.39
2022-12-19T20:43:44.966Z,26.86
2022-12-19T20:46:17.901Z,26.60
2022-12-19T20:48:46.274Z,27.14
2022-12-19T20:51:15.069Z,25.83
2022-12-19T20:53:42.909Z,27.24
2022-12-19T20:56:14.131Z,26.48
2022-12-19T20:58:41.291Z,27.24
2022-12-19T21:01:14.450Z,26.25
2022-12-19T21:03:42.513Z,24.61
2022-12-19T21:06:11.905Z,26.92
2022-12-19T21:08:39.089Z,24.18
2022-12-19T21:11:09.419Z,25.49
2022-12-19T21:13:38.402Z,25.47
2022-12-19T21:16:09.122Z,25.72
2022-12-19T21:18:38.650Z,25.99
2022-12-19T21:21:07.626Z,26.18
2022-12-19T21:23:34.732Z,27.27
2022-12-19T21:26:03.337Z,25.35
2022-12-19T21:28:30.837Z,24.76
2022-12-19T21:30:59.200Z,25.31
2022-12-19T21:33:26.818Z,24.66
2022-12-19T21:35:54.079Z,23.91
2022-12-19T21:38:21.255Z,23.72
2022-12-19T21:40:48.202Z,23.89
2022-12-19T21:43:15.650Z,22.48
2022-12-19T21:45:42.574Z,26.78
2022-12-19T21:48:09.632Z,27.18
2022-12-19T21:50:36.451Z,26.86
2022-12-19T21:53:03.256Z,26.25
2022-12-19T21:55:30.036Z,25.06
2022-12-19T21:57:57.317Z,24.74
2022-12-19T22:00:24.871Z,25.41
2022-12-19T22:03:12.616Z,25.30
2022-12-19T22:05:40.148Z,27.00
2022-12-19T22:08:09.551Z,27.33
2022-12-19T22:10:39.797Z,28.25
2022-12-19T22:13:06.532Z,25.80
2022-12-19T22:15:36.484Z,25.65
2022-12-19T22:18:03.204Z,26.45
2022-12-19T22:20:30.150Z,25.88
2022-12-19T22:22:56.904Z,27.59
2022-12-19T22:25:24.839Z,24.42
2022-12-19T22:27:51.712Z,24.80
2022-12-19T22:30:18.513Z,23.97
2022-12-19T22:32:45.414Z,25.62
2022-12-19T22:35:12.228Z,25.89
2022-12-19T22:37:39.871Z,25.95
2022-12-19T22:40:08.162Z,24.86
2022-12-19T22:42:34.998Z,27.92
2022-12-19T22:45:01.682Z,26.40
2022-12-19T22:47:28.421Z,26.76
2022-12-19T22:49:55.143Z,24.17
2022-12-19T22:52:24.465Z,24.27
2022-12-19T22:54:51.577Z,25.61
2022-12-19T22:57:18.287Z,26.08
2022-12-19T22:59:45.021Z,24.55
2022-12-19T23:02:12.010Z,24.60
2022-12-19T23:04:39.242Z,24.31
2022-12-19T23:07:05.983Z,24.72
2022-12-19T23:09:33.447Z,24.51
2022-12-19T23:12:00.124Z,24.85
2022-12-19T23:14:26.877Z,24.16
2022-12-19T23:16:53.698Z,24.03
2022-12-19T23:19:20.574Z,25.56
2022-12-19T23:21:47.960Z,24.76
2022-12-19T23:24:15.351Z,25.13
2022-12-19T23:26:42.206Z,27.05
2022-12-19T23:29:11.412Z,26.86
2022-12-19T23:31:40.660Z,25.18
2022-12-19T23:34:09.122Z,25.88
2022-12-19T23:39:23.931Z,24.12
2022-12-19T23:41:50.825Z,24.83
2022-12-19T23:44:18.057Z,27.43
2022-12-19T23:46:44.799Z,26.64
2022-12-19T23:49:11.514Z,26.64
2022-12-19T23:51:38.766Z,27.48
2022-12-19T23:54:05.617Z,26.89
2022-12-19T23:56:33.178Z,26.02
2022-12-19T23:59:00.525Z,27.12
